createdAt,value
2022-08-03T00:02:17.647Z,101186.16
2022-08-03T00:04:44.951Z,101181.91
2022-08-03T00:07:11.844Z,101181.03
2022-08-03T00:09:38.783Z,101194.94
2022-08-03T00:12:06.417Z,101182.66
2022-08-03T00:14:33.657Z,101178.19
2022-08-03T00:17:00.696Z,101173.06
2022-08-03T00:19:28.181Z,101175.16
2022-08-03T00:21:55.209Z,101166.28
2022-08-03T00:24:22.169Z,101173.84
2022-08-03T00:26:49.082Z,101174.84
2022-08-03T00:29:16.037Z,101170.59
2022-08-03T00:31:52.725Z,101174.56
2022-08-03T00:34:57.388Z,101166.00
2022-08-03T00:37:13.479Z,101168.75
2022-08-03T00:39:40.954Z,101171.00
2022-08-03T00:42:07.986Z,101170.31
2022-08-03T00:44:42.887Z,101176.84
2022-08-03T00:47:11.574Z,101169.84
2022-08-03T00:49:40.992Z,101171.75
2022-08-03T00:52:13.904Z,101175.22
2022-08-03T00:54:41.111Z,101171.31
2022-08-03T00:57:08.498Z,101170.44
2022-08-03T00:59:38.239Z,101169.13
2022-08-03T01:02:05.878Z,101168.63
2022-08-03T01:04:33.431Z,101160.09
2022-08-03T01:07:18.089Z,101172.09
2022-08-03T01:10:18.319Z,101164.25
2022-08-03T01:14:02.354Z,101157.44
2022-08-03T01:16:25.816Z,101165.66
2022-08-03T01:19:29.446Z,101160.69
2022-08-03T01:22:44.098Z,101152.84
2022-08-03T01:25:44.650Z,101158.50
2022-08-03T01:28:39.584Z,101151.72
2022-08-03T01:31:10.701Z,101158.19
2022-08-03T01:33:44.491Z,101161.81
2022-08-03T01:36:19.741Z,101157.53
2022-08-03T01:38:52.666Z,101157.91
2022-08-03T01:41:31.454Z,101146.44
2022-08-03T01:44:29.417Z,101143.84
2022-08-03T01:46:51.296Z,101151.41
2022-08-03T01:49:18.771Z,101147.16
2022-08-03T01:51:58.607Z,101143.06
2022-08-03T01:54:42.429Z,101139.84
2022-08-03T01:57:10.603Z,101140.00
2022-08-03T01:59:39.317Z,101142.75
2022-08-03T02:02:31.959Z,101135.75
2022-08-03T02:04:57.745Z,101133.34
2022-08-03T02:07:27.231Z,101140.06
2022-08-03T02:10:16.690Z,101135.78
2022-08-03T02:13:05.897Z,101129.84
2022-08-03T02:15:34.156Z,101126.59
2022-08-03T02:18:03.934Z,101127.81
2022-08-03T02:20:33.222Z,101127.13
2022-08-03T02:23:00.432Z,101124.59
2022-08-03T02:25:28.820Z,101134.66
2022-08-03T02:28:11.062Z,101131.06
2022-08-03T02:30:41.163Z,101141.00
2022-08-03T02:33:25.674Z,101139.09
2022-08-03T02:35:54.472Z,101145.59
2022-08-03T02:38:28.559Z,101135.53
2022-08-03T02:40:57.410Z,101140.78
2022-08-03T02:43:25.485Z,101140.63
2022-08-03T02:45:54.496Z,101136.16
2022-08-03T02:48:26.906Z,101126.28
2022-08-03T02:50:57.839Z,101133.78
2022-08-03T02:53:27.420Z,101145.78
2022-08-03T02:55:57.006Z,101142.34
2022-08-03T02:58:26.005Z,101133.28
2022-08-03T03:00:54.509Z,101141.34
2022-08-03T03:03:23.290Z,101143.22
2022-08-03T03:05:57.623Z,101146.31
2022-08-03T03:08:28.240Z,101149.41
2022-08-03T03:10:59.900Z,101141.53
2022-08-03T03:13:31.844Z,101148.38
2022-08-03T03:16:01.752Z,101148.56
2022-08-03T03:18:31.475Z,101151.50
2022-08-03T03:21:01.286Z,101152.69
2022-08-03T03:23:29.311Z,101148.56
2022-08-03T03:25:58.996Z,101151.13
2022-08-03T03:28:26.621Z,101150.63
2022-08-03T03:30:53.741Z,101148.94
2022-08-03T03:33:22.651Z,101148.44
2022-08-03T03:35:51.613Z,101146.03
2022-08-03T03:38:20.085Z,101155.63
2022-08-03T03:40:47.729Z,101153.03
2022-08-03T03:43:14.818Z,101160.59
2022-08-03T03:45:43.046Z,101156.13
2022-08-03T03:48:10.312Z,101176.09
2022-08-03T03:50:40.997Z,101166.38
2022-08-03T03:53:13.977Z,101164.66
2022-08-03T03:55:59.675Z,101166.53
2022-08-03T03:58:29.840Z,101166.72
2022-08-03T04:01:04.368Z,101169.63
2022-08-03T04:03:31.466Z,101171.69
2022-08-03T04:06:17.612Z,101174.56
2022-08-03T04:09:04.362Z,101170.50
2022-08-03T04:11:43.972Z,101185.19
2022-08-03T04:14:20.349Z,101179.22
2022-08-03T04:16:53.884Z,101185.88
2022-08-03T04:19:38.834Z,101184.13
2022-08-03T04:22:10.846Z,101189.78
2022-08-03T04:24:50.560Z,101189.94
2022-08-03T04:27:26.116Z,101188.25
2022-08-03T04:29:55.583Z,101195.41
2022-08-03T04:32:26.313Z,101192.66
2022-08-03T04:34:53.881Z,101192.53
2022-08-03T04:40:44.348Z,101207.03
2022-08-03T04:43:14.147Z,101198.16
2022-08-03T04:45:42.791Z,101205.66
2022-08-03T04:48:10.068Z,101209.75
2022-08-03T04:50:37.639Z,101203.44
2022-08-03T04:53:07.272Z,101210.59
2022-08-03T04:55:35.831Z,101204.28
2022-08-03T04:58:04.419Z,101208.72
2022-08-03T05:00:31.761Z,101206.69
2022-08-03T05:02:59.201Z,101211.81
2022-08-03T05:05:48.979Z,101216.22
2022-08-03T05:08:14.822Z,101217.97
2022-08-03T05:10:41.826Z,101218.47
2022-08-03T05:13:12.952Z,101221.88
2022-08-03T05:15:43.206Z,101219.66
2022-08-03T05:18:14.186Z,101219.50
2022-08-03T05:20:41.812Z,101225.66
2022-08-03T05:23:08.936Z,101220.84
2022-08-03T05:25:35.894Z,101232.28
2022-08-03T05:28:04.350Z,101229.41
2022-08-03T05:30:34.140Z,101233.84
2022-08-03T05:33:03.963Z,101223.94
2022-08-03T05:35:55.650Z,101235.72
2022-08-03T05:38:20.904Z,101230.25
2022-08-03T05:41:21.812Z,101226.13
2022-08-03T05:43:46.115Z,101235.53
2022-08-03T05:46:13.702Z,101229.72
2022-08-03T05:48:42.721Z,101231.28
2022-08-03T05:51:12.281Z,101222.75
2022-08-03T05:53:45.743Z,101231.25
2022-08-03T05:56:15.980Z,101227.47
2022-08-03T05:58:46.274Z,101218.94
2022-08-03T06:01:14.430Z,101221.00
2022-08-03T06:03:41.677Z,101217.78
2022-08-03T06:06:08.885Z,101220.53
2022-08-03T06:08:36.105Z,101219.47
2022-08-03T06:11:04.037Z,101234.50
2022-08-03T06:13:32.226Z,101229.72
2022-08-03T06:15:59.315Z,101227.31
2022-08-03T06:18:26.321Z,101230.56
2022-08-03T06:20:53.925Z,101232.94
2022-08-03T06:23:25.351Z,101234.13
2022-08-03T06:26:09.691Z,101240.94
2022-08-03T06:28:53.347Z,101238.38
2022-08-03T06:31:26.016Z,101238.00
2022-08-03T06:34:34.262Z,101246.72
2022-08-03T06:36:52.244Z,101248.75
2022-08-03T06:39:20.324Z,101248.38
2022-08-03T06:41:47.522Z,101251.97
2022-08-03T06:44:15.283Z,101252.97
2022-08-03T06:46:43.375Z,101247.34
2022-08-03T06:49:10.521Z,101251.44
2022-08-03T06:52:05.203Z,101255.16
2022-08-03T06:54:27.400Z,101258.88
2022-08-03T06:56:54.619Z,101256.47
2022-08-03T07:00:08.644Z,101261.41
2022-08-03T07:02:09.806Z,101250.56
2022-08-03T07:04:37.865Z,101259.81
2022-08-03T07:07:05.056Z,101263.69
2022-08-03T07:09:32.374Z,101263.81
2022-08-03T07:11:59.500Z,101264.97
2022-08-03T07:14:26.469Z,101267.34
2022-08-03T07:16:53.427Z,101260.81
2022-08-03T07:19:20.879Z,101260.94
2022-08-03T07:21:48.046Z,101263.50
2022-08-03T07:24:15.052Z,101261.06
2022-08-03T07:26:42.137Z,101256.91
2022-08-03T07:29:14.685Z,101261.78
2022-08-03T07:31:42.678Z,101258.78
2022-08-03T07:34:09.722Z,101257.25
2022-08-03T07:36:37.107Z,101257.09
2022-08-03T07:39:17.794Z,101252.78
2022-08-03T07:41:46.302Z,101259.00
2022-08-03T07:44:13.828Z,101262.72
2022-08-03T07:46:40.908Z,101257.75
2022-08-03T07:49:07.932Z,101258.88
2022-08-03T07:51:35.214Z,101258.97
2022-08-03T07:54:02.805Z,101264.56
2022-08-03T07:56:30.308Z,101265.91
2022-08-03T07:58:57.715Z,101267.41
2022-08-03T08:01:25.542Z,101264.78
2022-08-03T08:03:53.739Z,101258.72
2022-08-03T08:06:23.765Z,101259.88
2022-08-03T08:08:50.759Z,101250.00
2022-08-03T08:11:17.854Z,101264.88
2022-08-03T08:13:44.970Z,101255.06
2022-08-03T08:16:11.888Z,101259.81
2022-08-03T08:18:38.819Z,101256.94
2022-08-03T08:21:05.852Z,101264.78
2022-08-03T08:23:43.737Z,101259.38
2022-08-03T08:26:12.604Z,101260.69
2022-08-03T08:28:39.908Z,101267.78
2022-08-03T08:31:07.065Z,101263.34
2022-08-03T08:34:02.585Z,101263.81
2022-08-03T08:36:22.261Z,101269.75
2022-08-03T08:38:49.250Z,101263.69
2022-08-03T08:41:16.712Z,101261.31
2022-08-03T08:43:43.893Z,101267.47
2022-08-03T08:46:13.228Z,101265.19
2022-08-03T08:48:52.659Z,101269.25
2022-08-03T08:51:21.920Z,101268.28
2022-08-03T08:53:53.789Z,101268.75
2022-08-03T08:56:26.072Z,101269.19
2022-08-03T08:58:58.914Z,101269.19
2022-08-03T09:01:27.376Z,101273.69
2022-08-03T09:03:55.222Z,101272.25
2022-08-03T09:06:23.490Z,101268.31
2022-08-03T09:08:50.682Z,101281.00
2022-08-03T09:11:52.551Z,101271.63
2022-08-03T09:14:37.040Z,101268.94
2022-08-03T09:17:08.138Z,101262.59
2022-08-03T09:19:37.507Z,101262.25
2022-08-03T09:22:15.631Z,101259.94
2022-08-03T09:25:23.201Z,101266.34
2022-08-03T09:27:48.523Z,101265.53
2022-08-03T09:30:34.087Z,101257.28
2022-08-03T09:33:08.559Z,101254.13
2022-08-03T09:35:54.067Z,101256.94
2022-08-03T09:38:28.419Z,101263.13
2022-08-03T09:41:00.239Z,101258.38
2022-08-03T09:43:28.957Z,101264.94
2022-08-03T09:46:07.966Z,101256.50
2022-08-03T09:48:37.446Z,101259.97
2022-08-03T09:51:14.095Z,101256.78
2022-08-03T09:53:58.808Z,101262.09
2022-08-03T09:56:48.199Z,101260.44
2022-08-03T09:59:25.961Z,101262.41
2022-08-03T10:01:56.225Z,101255.69
2022-08-03T10:04:24.000Z,101254.00
2022-08-03T10:07:09.310Z,101247.19
2022-08-03T10:09:37.560Z,101252.75
2022-08-03T10:12:13.293Z,101251.53
2022-08-03T10:14:42.218Z,101247.50
2022-08-03T10:17:12.651Z,101242.84
2022-08-03T10:19:41.342Z,101238.63
2022-08-03T10:22:15.891Z,101244.56
2022-08-03T10:25:07.171Z,101242.03
2022-08-03T10:27:39.235Z,101231.03
2022-08-03T10:30:11.884Z,101238.03
2022-08-03T10:32:43.706Z,101232.75
2022-08-03T10:35:20.372Z,101228.97
2022-08-03T10:38:20.111Z,101218.34
2022-08-03T10:40:55.775Z,101214.09
2022-08-03T10:43:38.978Z,101213.03
2022-08-03T10:46:08.632Z,101216.84
2022-08-03T10:48:36.915Z,101212.41
2022-08-03T10:51:05.106Z,101203.28
2022-08-03T10:53:52.812Z,101206.22
2022-08-03T10:56:53.258Z,101206.44
2022-08-03T10:59:46.144Z,101204.72
2022-08-03T11:02:14.802Z,101207.25
2022-08-03T11:04:42.874Z,101195.09
2022-08-03T11:07:24.239Z,101200.16
2022-08-03T11:09:54.322Z,101193.59
2022-08-03T11:12:31.462Z,101194.81
2022-08-03T11:15:07.173Z,101194.19
2022-08-03T11:17:46.859Z,101188.47
2022-08-03T11:20:52.961Z,101187.19
2022-08-03T11:24:05.336Z,101178.63
2022-08-03T11:26:31.374Z,101177.75
2022-08-03T11:29:31.081Z,101180.44
2022-08-03T11:31:58.207Z,101174.25
2022-08-03T11:34:26.415Z,101175.91
2022-08-03T11:37:21.387Z,101168.81
2022-08-03T11:39:53.115Z,101167.72
2022-08-03T11:42:35.281Z,101161.25
2022-08-03T11:45:08.933Z,101169.03
2022-08-03T11:47:50.114Z,101162.59
2022-08-03T11:50:20.043Z,101159.53
2022-08-03T11:52:49.327Z,101164.41
2022-08-03T11:55:21.702Z,101157.81
2022-08-03T11:59:11.242Z,101162.72
2022-08-03T12:00:38.003Z,101157.31
2022-08-03T12:03:18.412Z,101145.47
2022-08-03T12:05:52.297Z,101151.00
2022-08-03T12:08:32.089Z,101143.00
2022-08-03T12:11:02.397Z,101148.31
2022-08-03T12:14:45.161Z,101136.63
2022-08-03T12:16:40.775Z,101136.19
2022-08-03T12:19:08.497Z,101131.66
2022-08-03T12:21:56.925Z,101140.44
2022-08-03T12:24:28.398Z,101138.75
2022-08-03T12:26:59.155Z,101130.34
2022-08-03T12:29:27.756Z,101130.97
2022-08-03T12:31:56.438Z,101120.06
2022-08-03T12:34:23.708Z,101128.41
2022-08-03T12:36:53.437Z,101129.41
2022-08-03T12:39:26.632Z,101119.78
2022-08-03T12:41:55.074Z,101130.53
2022-08-03T12:44:36.131Z,101122.09
2022-08-03T12:47:06.677Z,101125.59
2022-08-03T12:49:53.960Z,101125.66
2022-08-03T12:52:23.072Z,101121.94
2022-08-03T12:54:59.111Z,101115.38
2022-08-03T12:57:40.841Z,101118.28
2022-08-03T13:00:21.704Z,101119.13
2022-08-03T13:05:54.741Z,101108.22
2022-08-03T13:08:26.001Z,101104.00
2022-08-03T13:10:53.741Z,101104.72
2022-08-03T13:13:39.182Z,101109.81
2022-08-03T13:16:06.203Z,101101.00
2022-08-03T13:18:33.452Z,101104.03
2022-08-03T13:21:01.014Z,101098.72
2022-08-03T13:23:28.470Z,101095.22
2022-08-03T13:25:56.263Z,101098.59
2022-08-03T13:28:23.608Z,101100.28
2022-08-03T13:30:50.770Z,101091.47
2022-08-03T13:33:18.112Z,101091.69
2022-08-03T13:35:45.169Z,101088.09
2022-08-03T13:38:12.634Z,101091.09
2022-08-03T13:40:42.719Z,101087.13
2022-08-03T13:43:13.106Z,101080.38
2022-08-03T13:45:52.322Z,101080.50
2022-08-03T13:48:36.765Z,101077.84
2022-08-03T13:51:11.803Z,101068.44
2022-08-03T13:53:51.049Z,101070.72
2022-08-03T13:56:18.272Z,101066.53
2022-08-03T13:58:45.324Z,101061.56
2022-08-03T14:01:12.444Z,101063.13
2022-08-03T14:03:39.514Z,101050.44
2022-08-03T14:06:06.684Z,101051.06
2022-08-03T14:08:33.632Z,101046.19
2022-08-03T14:11:01.008Z,101044.34
2022-08-03T14:13:28.161Z,101041.69
2022-08-03T14:15:56.067Z,101028.66
2022-08-03T14:18:29.012Z,101025.19
2022-08-03T14:21:05.880Z,101024.19
2022-08-03T14:23:36.847Z,101028.16
2022-08-03T14:26:06.289Z,101027.88
2022-08-03T14:28:33.300Z,101014.50
2022-08-03T14:31:01.452Z,101020.06
2022-08-03T14:33:28.520Z,101015.09
2022-08-03T14:35:55.715Z,101012.94
2022-08-03T14:38:23.716Z,101017.75
2022-08-03T14:40:51.423Z,101009.78
2022-08-03T14:43:20.207Z,101013.16
2022-08-03T14:45:52.136Z,101005.59
2022-08-03T14:50:34.819Z,101001.34
2022-08-03T14:51:11.997Z,101009.81
2022-08-03T14:53:39.067Z,101000.38
2022-08-03T14:56:10.170Z,100994.59
2022-08-03T14:58:40.128Z,100997.47
2022-08-03T15:02:03.240Z,100984.91
2022-08-03T15:03:54.645Z,100986.66
2022-08-03T15:06:21.937Z,100984.28
2022-08-03T15:09:13.727Z,100984.78
2022-08-03T15:11:36.856Z,100981.13
2022-08-03T15:14:09.008Z,100976.34
2022-08-03T15:16:37.649Z,100971.63
2022-08-03T15:20:01.172Z,100967.56
2022-08-03T15:21:52.195Z,100966.38
2022-08-03T15:24:19.481Z,100966.38
2022-08-03T15:26:46.732Z,100962.97
2022-08-03T15:30:05.230Z,100958.91
2022-08-03T15:32:00.965Z,100960.22
2022-08-03T15:34:28.042Z,100959.88
2022-08-03T15:36:55.208Z,100956.50
2022-08-03T15:39:22.484Z,100960.84
2022-08-03T15:41:49.551Z,100956.03
2022-08-03T15:44:20.378Z,100946.50
2022-08-03T15:46:48.056Z,100945.94
2022-08-03T15:49:16.623Z,100947.84
2022-08-03T15:51:43.635Z,100940.50
2022-08-03T15:54:10.719Z,100942.19
2022-08-03T15:56:37.848Z,100935.69
2022-08-03T15:59:12.604Z,100939.69
2022-08-03T16:01:41.739Z,100938.19
2022-08-03T16:04:08.903Z,100940.97
2022-08-03T16:06:36.612Z,100935.19
2022-08-03T16:09:23.574Z,100933.13
2022-08-03T16:11:59.093Z,100929.28
2022-08-03T16:14:32.434Z,100935.91
2022-08-03T16:17:04.102Z,100929.53
2022-08-03T16:19:31.267Z,100929.44
2022-08-03T16:22:03.259Z,100928.59
2022-08-03T16:24:31.839Z,100932.44
2022-08-03T16:27:00.567Z,100938.59
2022-08-03T16:29:28.565Z,100930.28
2022-08-03T16:31:55.504Z,100917.38
2022-08-03T16:34:22.486Z,100925.69
2022-08-03T16:36:49.545Z,100916.75
2022-08-03T16:39:16.957Z,100923.41
2022-08-03T16:41:53.872Z,100931.09
2022-08-03T16:44:30.796Z,100928.94
2022-08-03T16:46:59.088Z,100922.19
2022-08-03T16:49:53.171Z,100924.34
2022-08-03T16:52:13.556Z,100923.50
2022-08-03T16:54:44.403Z,100921.22
2022-08-03T16:57:56.092Z,100922.78
2022-08-03T17:00:09.530Z,100916.63
2022-08-03T17:02:37.337Z,100916.91
2022-08-03T17:05:05.116Z,100913.50
2022-08-03T17:07:31.991Z,100911.19
2022-08-03T17:10:01.060Z,100907.81
2022-08-03T17:12:28.459Z,100910.81
2022-08-03T17:14:57.168Z,100904.94
2022-08-03T17:17:37.601Z,100909.00
2022-08-03T17:20:19.575Z,100916.13
2022-08-03T17:23:34.316Z,100910.22
2022-08-03T17:26:10.543Z,100909.84
2022-08-03T17:28:56.472Z,100913.94
2022-08-03T17:31:31.827Z,100917.91
2022-08-03T17:34:04.449Z,100910.44
2022-08-03T17:37:02.573Z,100921.75
2022-08-03T17:39:48.538Z,100917.50
2022-08-03T17:42:30.634Z,100921.63
2022-08-03T17:45:01.716Z,100921.47
2022-08-03T17:50:24.148Z,100921.59
2022-08-03T17:53:15.206Z,100932.25
2022-08-03T17:55:55.011Z,100921.03
2022-08-03T17:58:52.400Z,100925.34
2022-08-03T18:02:00.531Z,100930.53
2022-08-03T18:04:37.712Z,100932.06
2022-08-03T18:07:12.736Z,100931.94
2022-08-03T18:10:03.389Z,100928.41
2022-08-03T18:12:51.751Z,100925.50
2022-08-03T18:15:40.332Z,100929.81
2022-08-03T18:18:10.510Z,100936.06
2022-08-03T18:20:41.969Z,100932.66
2022-08-03T18:23:24.846Z,100930.56
2022-08-03T18:26:04.884Z,100930.88
2022-08-03T18:28:34.562Z,100933.50
2022-08-03T18:31:06.134Z,100931.41
2022-08-03T18:34:18.465Z,100933.19
2022-08-03T18:39:15.245Z,100939.72
2022-08-03T18:41:46.526Z,100929.34
2022-08-03T18:44:37.655Z,100931.09
2022-08-03T18:47:52.113Z,100933.91
2022-08-03T18:50:34.083Z,100933.38
2022-08-03T18:54:02.631Z,100931.28
2022-08-03T18:56:55.083Z,100931.97
2022-08-03T18:59:34.878Z,100933.97
2022-08-03T19:02:26.674Z,100939.56
2022-08-03T19:04:55.323Z,100940.22
2022-08-03T19:07:27.344Z,100942.59
2022-08-03T19:10:06.988Z,100938.81
2022-08-03T19:12:56.273Z,100944.19
2022-08-03T19:15:36.848Z,100948.66
2022-08-03T19:18:11.917Z,100956.75
2022-08-03T19:20:54.741Z,100953.19
2022-08-03T19:23:25.622Z,100957.69
2022-08-03T19:28:41.565Z,100958.41
2022-08-03T19:31:11.317Z,100965.44
2022-08-03T19:33:57.295Z,100958.91
2022-08-03T19:36:28.622Z,100966.97
2022-08-03T19:38:57.590Z,100963.81
2022-08-03T19:41:31.187Z,100968.91
2022-08-03T19:44:20.205Z,100965.97
2022-08-03T19:46:54.675Z,100966.41
2022-08-03T19:49:59.920Z,100971.53
2022-08-03T19:52:24.164Z,100964.97
2022-08-03T19:54:54.647Z,100969.25
2022-08-03T19:57:27.329Z,100973.28
2022-08-03T19:59:56.931Z,100973.91
2022-08-03T20:02:34.432Z,100975.66
2022-08-03T20:05:02.230Z,100988.16
2022-08-03T20:07:32.873Z,100985.88
2022-08-03T20:10:04.317Z,100981.84
2022-08-03T20:12:39.080Z,100986.09
2022-08-03T20:15:09.173Z,100989.53
2022-08-03T20:17:56.903Z,100992.03
2022-08-03T20:20:35.782Z,101000.09
2022-08-03T20:23:20.619Z,100996.31
2022-08-03T20:26:00.557Z,100997.78
2022-08-03T20:28:33.334Z,100992.09
2022-08-03T20:31:02.007Z,100992.09
2022-08-03T20:33:45.887Z,101002.69
2022-08-03T20:36:17.920Z,101003.56
2022-08-03T20:38:47.908Z,101005.88
2022-08-03T20:41:17.267Z,101007.56
2022-08-03T20:43:45.387Z,101000.81
2022-08-03T20:46:31.868Z,100996.53
2022-08-03T20:49:04.988Z,101002.69
2022-08-03T20:51:50.395Z,100998.63
2022-08-03T20:54:29.601Z,101005.44
2022-08-03T20:57:04.130Z,101007.56
2022-08-03T20:59:50.839Z,101007.13
2022-08-03T21:02:29.208Z,101002.69
2022-08-03T21:05:02.856Z,101002.22
2022-08-03T21:08:06.425Z,101004.38
2022-08-03T21:10:39.693Z,101013.03
2022-08-03T21:12:55.172Z,100919.19
2022-08-03T21:13:08.186Z,100937.94
2022-08-03T21:13:23.446Z,101018.75
2022-08-03T21:16:12.178Z,101016.41
2022-08-03T21:18:51.817Z,101027.00
2022-08-03T21:21:22.496Z,101016.41
2022-08-03T21:23:55.004Z,101022.75
2022-08-03T21:26:25.885Z,101021.69
2022-08-03T21:28:56.965Z,101019.56
2022-08-03T21:31:26.561Z,101024.81
2022-08-03T21:33:57.246Z,101029.25
2022-08-03T21:36:31.116Z,101019.91
2022-08-03T21:38:59.474Z,101021.19
2022-08-03T21:41:30.605Z,101028.97
2022-08-03T21:43:59.242Z,101032.13
2022-08-03T21:46:30.807Z,101029.19
2022-08-03T21:49:51.900Z,101031.28
2022-08-03T21:51:50.483Z,101028.09
2022-08-03T21:54:34.650Z,101035.72
2022-08-03T21:57:06.549Z,101035.06
2022-08-03T21:59:38.104Z,101040.97
2022-08-03T22:02:32.226Z,101048.78
2022-08-03T22:04:59.634Z,101051.72
2022-08-03T22:07:37.701Z,101058.69
2022-08-03T22:10:07.742Z,101060.81
2022-08-03T22:12:35.687Z,101061.22
2022-08-03T22:15:07.458Z,101050.22
2022-08-03T22:17:55.418Z,101060.34
2022-08-03T22:20:25.177Z,101065.41
2022-08-03T22:22:57.026Z,101061.78
2022-08-03T22:25:29.299Z,101067.13
2022-08-03T22:27:59.769Z,101066.25
2022-08-03T22:30:27.116Z,101064.53
2022-08-03T22:32:56.316Z,101071.09
2022-08-03T22:35:26.555Z,101076.78
2022-08-03T22:37:58.428Z,101073.59
2022-08-03T22:40:28.294Z,101078.44
2022-08-03T22:42:55.465Z,101079.88
2022-08-03T22:46:07.717Z,101084.75
2022-08-03T22:48:11.212Z,101078.38
2022-08-03T22:50:39.030Z,101084.06
2022-08-03T22:53:06.791Z,101084.84
2022-08-03T22:55:34.348Z,101081.88
2022-08-03T22:58:01.282Z,101090.28
2022-08-03T23:00:28.407Z,101073.38
2022-08-03T23:02:58.552Z,101087.50
2022-08-03T23:06:01.736Z,101088.75
2022-08-03T23:08:25.510Z,101085.75
2022-08-03T23:10:54.342Z,101084.66
2022-08-03T23:13:25.407Z,101083.13
2022-08-03T23:15:57.723Z,101090.91
2022-08-03T23:18:30.433Z,101094.88
2022-08-03T23:21:02.405Z,101095.28
2022-08-03T23:23:44.520Z,101092.94
2022-08-03T23:26:13.216Z,101099.41
2022-08-03T23:28:45.501Z,101092.03
2022-08-03T23:31:14.444Z,101098.75
2022-08-03T23:33:44.684Z,101096.44
2022-08-03T23:36:30.954Z,101092.16
2022-08-03T23:39:03.265Z,101093.78
2022-08-03T23:41:31.048Z,101090.38
2022-08-03T23:44:01.491Z,101089.94
2022-08-03T23:46:30.532Z,101089.28
2022-08-03T23:49:06.512Z,101091.59
2022-08-03T23:51:41.214Z,101089.03
2022-08-03T23:54:26.705Z,101082.00
2022-08-03T23:57:19.513Z,101081.38
